sensor_id;sensor_type;location;lat;lon;timestamp;P1;durP1;ratioP1;P2;durP2;ratioP2
7823;SDS011;3957;48.61947800;9.05303100;2022-08-01T00:01:07;1.63;;;1.50;;
7823;SDS011;3957;48.61947800;9.05303100;2022-08-01T00:02:28;2.60;;;1.60;;
7823;SDS011;3957;48.61947800;9.05303100;2022-08-01T00:03:49;3.13;;;1.70;;
7823;SDS011;3957;48.61947800;9.05303100;2022-08-01T00:05:09;1.63;;;1.52;;
7823;SDS011;3957;48.61947800;9.05303100;2022-08-01T00:06:31;1.87;;;1.60;;
7823;SDS011;3957;48.61947800;9.05303100;2022-08-01T00:07:52;2.97;;;1.50;;
7823;SDS011;3957;48.61947800;9.05303100;2022-08-01T00:09:13;2.27;;;1.70;;
7823;SDS011;3957;48.61947800;9.05303100;2022-08-01T00:10:33;3.00;;;1.50;;
7823;SDS011;3957;48.61947800;9.05303100;2022-08-01T00:11:54;1.60;;;1.40;;
7823;SDS011;3957;48.61947800;9.05303100;2022-08-01T00:13:15;1.65;;;1.50;;
7823;SDS011;3957;48.61947800;9.05303100;2022-08-01T00:14:36;2.17;;;1.63;;
7823;SDS011;3957;48.61947800;9.05303100;2022-08-01T00:15:57;1.92;;;1.48;;
7823;SDS011;3957;48.61947800;9.05303100;2022-08-01T00:17:17;2.05;;;1.60;;
7823;SDS011;3957;48.61947800;9.05303100;2022-08-01T00:18:38;1.70;;;1.60;;
7823;SDS011;3957;48.61947800;9.05303100;2022-08-01T00:19:59;3.00;;;1.80;;
7823;SDS011;3957;48.61947800;9.05303100;2022-08-01T00:21:20;2.58;;;1.70;;
7823;SDS011;3957;48.61947800;9.05303100;2022-08-01T00:22:42;1.95;;;1.60;;
7823;SDS011;3957;48.61947800;9.05303100;2022-08-01T00:24:03;1.60;;;1.30;;
7823;SDS011;3957;48.61947800;9.05303100;2022-08-01T00:25:23;1.90;;;1.70;;
7823;SDS011;3957;48.61947800;9.05303100;2022-08-01T00:26:44;1.80;;;1.70;;
7823;SDS011;3957;48.61947800;9.05303100;2022-08-01T00:28:05;2.03;;;1.83;;
7823;SDS011;3957;48.61947800;9.05303100;2022-08-01T00:29:28;2.08;;;1.75;;
7823;SDS011;3957;48.61947800;9.05303100;2022-08-01T00:30:49;2.42;;;1.70;;
7823;SDS011;3957;48.61947800;9.05303100;2022-08-01T00:32:10;2.40;;;1.93;;
7823;SDS011;3957;48.61947800;9.05303100;2022-08-01T00:33:31;2.75;;;1.83;;
7823;SDS011;3957;48.61947800;9.05303100;2022-08-01T00:34:52;2.15;;;1.95;;
7823;SDS011;3957;48.61947800;9.05303100;2022-08-01T00:36:12;3.88;;;1.83;;
7823;SDS011;3957;48.61947800;9.05303100;2022-08-01T00:37:33;2.30;;;1.70;;
7823;SDS011;3957;48.61947800;9.05303100;2022-08-01T00:38:54;2.20;;;1.70;;
7823;SDS011;3957;48.61947800;9.05303100;2022-08-01T00:40:15;2.00;;;1.80;;
7823;SDS011;3957;48.61947800;9.05303100;2022-08-01T00:41:36;2.60;;;2.10;;
7823;SDS011;3957;48.61947800;9.05303100;2022-08-01T00:42:56;2.80;;;1.75;;
7823;SDS011;3957;48.61947800;9.05303100;2022-08-01T00:44:17;1.60;;;1.50;;
7823;SDS011;3957;48.61947800;9.05303100;2022-08-01T00:45:38;2.45;;;2.15;;
7823;SDS011;3957;48.61947800;9.05303100;2022-08-01T00:46:58;2.50;;;1.70;;
7823;SDS011;3957;48.61947800;9.05303100;2022-08-01T00:48:19;2.72;;;1.83;;
7823;SDS011;3957;48.61947800;9.05303100;2022-08-01T00:49:40;2.78;;;1.95;;
7823;SDS011;3957;48.61947800;9.05303100;2022-08-01T00:51:02;2.70;;;1.92;;
7823;SDS011;3957;48.61947800;9.05303100;2022-08-01T00:52:24;2.00;;;1.70;;
7823;SDS011;3957;48.61947800;9.05303100;2022-08-01T00:53:45;1.67;;;1.57;;
7823;SDS011;3957;48.61947800;9.05303100;2022-08-01T00:55:07;2.27;;;2.00;;
7823;SDS011;3957;48.61947800;9.05303100;2022-08-01T00:56:28;2.03;;;1.80;;
7823;SDS011;3957;48.61947800;9.05303100;2022-08-01T00:57:49;1.90;;;1.80;;
7823;SDS011;3957;48.61947800;9.05303100;2022-08-01T00:59:11;1.88;;;1.70;;
7823;SDS011;3957;48.61947800;9.05303100;2022-08-01T01:00:33;2.20;;;1.83;;
7823;SDS011;3957;48.61947800;9.05303100;2022-08-01T01:01:55;2.90;;;1.70;;
7823;SDS011;3957;48.61947800;9.05303100;2022-08-01T01:03:16;2.80;;;1.80;;
7823;SDS011;3957;48.61947800;9.05303100;2022-08-01T01:04:37;2.08;;;1.60;;
7823;SDS011;3957;48.61947800;9.05303100;2022-08-01T01:07:48;2.08;;;1.70;;
7823;SDS011;3957;48.61947800;9.05303100;2022-08-01T01:11:36;2.20;;;1.90;;
7823;SDS011;3957;48.61947800;9.05303100;2022-08-01T01:13:04;2.17;;;1.98;;
7823;SDS011;3957;48.61947800;9.05303100;2022-08-01T01:16:14;2.45;;;2.03;;
7823;SDS011;3957;48.61947800;9.05303100;2022-08-01T01:17:39;3.70;;;1.92;;
7823;SDS011;3957;48.61947800;9.05303100;2022-08-01T01:19:05;4.35;;;2.20;;
7823;SDS011;3957;48.61947800;9.05303100;2022-08-01T01:20:34;2.50;;;1.90;;
7823;SDS011;3957;48.61947800;9.05303100;2022-08-01T01:22:08;1.93;;;1.70;;
7823;SDS011;3957;48.61947800;9.05303100;2022-08-01T01:23:40;2.47;;;2.20;;
7823;SDS011;3957;48.61947800;9.05303100;2022-08-01T01:30:49;2.13;;;1.90;;
7823;SDS011;3957;48.61947800;9.05303100;2022-08-01T01:32:22;2.80;;;1.95;;
7823;SDS011;3957;48.61947800;9.05303100;2022-08-01T01:33:48;3.05;;;2.05;;
7823;SDS011;3957;48.61947800;9.05303100;2022-08-01T01:35:22;2.95;;;1.98;;
7823;SDS011;3957;48.61947800;9.05303100;2022-08-01T01:36:45;1.92;;;1.70;;
7823;SDS011;3957;48.61947800;9.05303100;2022-08-01T01:38:09;2.20;;;2.00;;
7823;SDS011;3957;48.61947800;9.05303100;2022-08-01T01:39:35;2.55;;;2.00;;
7823;SDS011;3957;48.61947800;9.05303100;2022-08-01T01:40:58;3.47;;;2.00;;
7823;SDS011;3957;48.61947800;9.05303100;2022-08-01T01:42:22;3.03;;;1.90;;
7823;SDS011;3957;48.61947800;9.05303100;2022-08-01T01:43:46;2.45;;;2.00;;
7823;SDS011;3957;48.61947800;9.05303100;2022-08-01T01:45:08;1.83;;;1.73;;
7823;SDS011;3957;48.61947800;9.05303100;2022-08-01T01:46:30;3.63;;;2.20;;
7823;SDS011;3957;48.61947800;9.05303100;2022-08-01T01:47:52;2.92;;;2.10;;
7823;SDS011;3957;48.61947800;9.05303100;2022-08-01T01:49:15;2.20;;;2.00;;
7823;SDS011;3957;48.61947800;9.05303100;2022-08-01T01:50:36;2.10;;;1.83;;
7823;SDS011;3957;48.61947800;9.05303100;2022-08-01T01:51:58;4.03;;;2.10;;
7823;SDS011;3957;48.61947800;9.05303100;2022-08-01T01:53:21;1.98;;;1.77;;
7823;SDS011;3957;48.61947800;9.05303100;2022-08-01T01:54:46;1.80;;;1.60;;
7823;SDS011;3957;48.61947800;9.05303100;2022-08-01T01:56:08;2.58;;;1.98;;
7823;SDS011;3957;48.61947800;9.05303100;2022-08-01T01:57:30;3.27;;;2.00;;
7823;SDS011;3957;48.61947800;9.05303100;2022-08-01T01:58:57;2.33;;;1.90;;
7823;SDS011;3957;48.61947800;9.05303100;2022-08-01T02:00:20;2.20;;;2.00;;
7823;SDS011;3957;48.61947800;9.05303100;2022-08-01T02:01:42;2.05;;;1.83;;
7823;SDS011;3957;48.61947800;9.05303100;2022-08-01T02:03:05;2.10;;;1.90;;
7823;SDS011;3957;48.61947800;9.05303100;2022-08-01T02:04:27;2.38;;;1.98;;
7823;SDS011;3957;48.61947800;9.05303100;2022-08-01T02:05:51;2.92;;;2.00;;
7823;SDS011;3957;48.61947800;9.05303100;2022-08-01T02:07:18;2.35;;;1.88;;
7823;SDS011;3957;48.61947800;9.05303100;2022-08-01T02:08:43;2.67;;;1.80;;
7823;SDS011;3957;48.61947800;9.05303100;2022-08-01T02:10:05;2.70;;;2.00;;
7823;SDS011;3957;48.61947800;9.05303100;2022-08-01T02:11:27;3.15;;;2.05;;
7823;SDS011;3957;48.61947800;9.05303100;2022-08-01T02:12:49;2.55;;;2.30;;
7823;SDS011;3957;48.61947800;9.05303100;2022-08-01T02:14:10;2.55;;;2.17;;
7823;SDS011;3957;48.61947800;9.05303100;2022-08-01T02:15:33;2.55;;;2.13;;
7823;SDS011;3957;48.61947800;9.05303100;2022-08-01T02:16:58;2.30;;;2.10;;
7823;SDS011;3957;48.61947800;9.05303100;2022-08-01T02:18:20;2.40;;;1.98;;
7823;SDS011;3957;48.61947800;9.05303100;2022-08-01T02:19:41;3.03;;;2.03;;
7823;SDS011;3957;48.61947800;9.05303100;2022-08-01T02:21:03;2.70;;;2.20;;
7823;SDS011;3957;48.61947800;9.05303100;2022-08-01T02:22:40;3.15;;;2.20;;
7823;SDS011;3957;48.61947800;9.05303100;2022-08-01T02:24:19;2.65;;;2.30;;
7823;SDS011;3957;48.61947800;9.05303100;2022-08-01T02:25:55;2.00;;;1.80;;
7823;SDS011;3957;48.61947800;9.05303100;2022-08-01T02:27:21;3.42;;;2.17;;
7823;SDS011;3957;48.61947800;9.05303100;2022-08-01T02:28:50;1.98;;;1.88;;
7823;SDS011;3957;48.61947800;9.05303100;2022-08-01T02:30:13;3.90;;;2.40;;
7823;SDS011;3957;48.61947800;9.05303100;2022-08-01T02:31:36;3.90;;;2.00;;
7823;SDS011;3957;48.61947800;9.05303100;2022-08-01T02:33:05;2.72;;;2.05;;
7823;SDS011;3957;48.61947800;9.05303100;2022-08-01T02:34:29;3.38;;;2.40;;
7823;SDS011;3957;48.61947800;9.05303100;2022-08-01T02:35:54;2.75;;;2.10;;
7823;SDS011;3957;48.61947800;9.05303100;2022-08-01T02:37:18;2.92;;;2.20;;
7823;SDS011;3957;48.61947800;9.05303100;2022-08-01T02:38:41;3.08;;;2.45;;
7823;SDS011;3957;48.61947800;9.05303100;2022-08-01T02:40:03;2.20;;;2.00;;
7823;SDS011;3957;48.61947800;9.05303100;2022-08-01T02:41:26;2.05;;;1.85;;
7823;SDS011;3957;48.61947800;9.05303100;2022-08-01T02:42:49;3.15;;;1.92;;
7823;SDS011;3957;48.61947800;9.05303100;2022-08-01T02:44:13;2.40;;;2.10;;
7823;SDS011;3957;48.61947800;9.05303100;2022-08-01T02:45:42;2.90;;;2.20;;
7823;SDS011;3957;48.61947800;9.05303100;2022-08-01T02:47:06;2.97;;;2.00;;
7823;SDS011;3957;48.61947800;9.05303100;2022-08-01T02:48:26;2.22;;;2.03;;
7823;SDS011;3957;48.61947800;9.05303100;2022-08-01T02:49:51;2.78;;;2.15;;
7823;SDS011;3957;48.61947800;9.05303100;2022-08-01T02:51:13;2.43;;;2.20;;
7823;SDS011;3957;48.61947800;9.05303100;2022-08-01T02:52:36;3.58;;;2.30;;
7823;SDS011;3957;48.61947800;9.05303100;2022-08-01T02:53:58;2.72;;;2.20;;
7823;SDS011;3957;48.61947800;9.05303100;2022-08-01T02:55:22;2.10;;;1.90;;
7823;SDS011;3957;48.61947800;9.05303100;2022-08-01T02:56:44;3.78;;;2.15;;
7823;SDS011;3957;48.61947800;9.05303100;2022-08-01T02:58:06;2.50;;;2.30;;
7823;SDS011;3957;48.61947800;9.05303100;2022-08-01T02:59:30;3.22;;;2.22;;
7823;SDS011;3957;48.61947800;9.05303100;2022-08-01T03:00:54;2.87;;;1.93;;
7823;SDS011;3957;48.61947800;9.05303100;2022-08-01T03:02:16;2.10;;;1.90;;
7823;SDS011;3957;48.61947800;9.05303100;2022-08-01T03:03:38;2.03;;;1.85;;
7823;SDS011;3957;48.61947800;9.05303100;2022-08-01T03:04:59;2.15;;;1.95;;
7823;SDS011;3957;48.61947800;9.05303100;2022-08-01T03:06:21;2.63;;;1.92;;
7823;SDS011;3957;48.61947800;9.05303100;2022-08-01T03:07:43;2.20;;;2.00;;
7823;SDS011;3957;48.61947800;9.05303100;2022-08-01T03:09:06;3.38;;;2.22;;
7823;SDS011;3957;48.61947800;9.05303100;2022-08-01T03:10:27;2.65;;;2.28;;
7823;SDS011;3957;48.61947800;9.05303100;2022-08-01T03:11:49;2.20;;;2.00;;
7823;SDS011;3957;48.61947800;9.05303100;2022-08-01T03:13:11;3.13;;;2.35;;
7823;SDS011;3957;48.61947800;9.05303100;2022-08-01T03:14:35;2.20;;;2.00;;
7823;SDS011;3957;48.61947800;9.05303100;2022-08-01T03:15:58;5.20;;;2.22;;
7823;SDS011;3957;48.61947800;9.05303100;2022-08-01T03:17:21;2.67;;;2.15;;
7823;SDS011;3957;48.61947800;9.05303100;2022-08-01T03:18:45;4.03;;;2.00;;
7823;SDS011;3957;48.61947800;9.05303100;2022-08-01T03:20:08;2.67;;;2.28;;
7823;SDS011;3957;48.61947800;9.05303100;2022-08-01T03:21:32;2.17;;;1.95;;
7823;SDS011;3957;48.61947800;9.05303100;2022-08-01T03:22:54;2.00;;;1.80;;
7823;SDS011;3957;48.61947800;9.05303100;2022-08-01T03:24:18;2.35;;;2.00;;
7823;SDS011;3957;48.61947800;9.05303100;2022-08-01T03:25:41;2.50;;;2.10;;
7823;SDS011;3957;48.61947800;9.05303100;2022-08-01T03:27:05;2.40;;;2.10;;
7823;SDS011;3957;48.61947800;9.05303100;2022-08-01T03:28:27;1.80;;;1.70;;
7823;SDS011;3957;48.61947800;9.05303100;2022-08-01T03:29:50;2.00;;;1.77;;
7823;SDS011;3957;48.61947800;9.05303100;2022-08-01T03:31:13;2.10;;;1.90;;
7823;SDS011;3957;48.61947800;9.05303100;2022-08-01T03:32:35;2.20;;;2.00;;
7823;SDS011;3957;48.61947800;9.05303100;2022-08-01T03:33:56;1.98;;;1.65;;
7823;SDS011;3957;48.61947800;9.05303100;2022-08-01T03:35:17;2.58;;;1.80;;
7823;SDS011;3957;48.61947800;9.05303100;2022-08-01T03:36:42;2.08;;;1.88;;
7823;SDS011;3957;48.61947800;9.05303100;2022-08-01T03:38:17;2.10;;;1.70;;
7823;SDS011;3957;48.61947800;9.05303100;2022-08-01T03:39:47;2.60;;;1.77;;
7823;SDS011;3957;48.61947800;9.05303100;2022-08-01T03:41:12;2.03;;;1.80;;
7823;SDS011;3957;48.61947800;9.05303100;2022-08-01T03:42:39;2.00;;;1.80;;
7823;SDS011;3957;48.61947800;9.05303100;2022-08-01T03:44:05;2.05;;;1.90;;
7823;SDS011;3957;48.61947800;9.05303100;2022-08-01T03:45:34;3.28;;;1.70;;
7823;SDS011;3957;48.61947800;9.05303100;2022-08-01T03:46:59;1.80;;;1.70;;
7823;SDS011;3957;48.61947800;9.05303100;2022-08-01T03:48:24;2.60;;;1.75;;
7823;SDS011;3957;48.61947800;9.05303100;2022-08-01T03:49:49;2.25;;;2.05;;
7823;SDS011;3957;48.61947800;9.05303100;2022-08-01T03:51:12;2.05;;;1.88;;
7823;SDS011;3957;48.61947800;9.05303100;2022-08-01T03:52:34;2.22;;;1.95;;
7823;SDS011;3957;48.61947800;9.05303100;2022-08-01T03:53:59;3.00;;;2.05;;
7823;SDS011;3957;48.61947800;9.05303100;2022-08-01T03:55:21;2.20;;;2.00;;
7823;SDS011;3957;48.61947800;9.05303100;2022-08-01T03:56:42;1.83;;;1.73;;
7823;SDS011;3957;48.61947800;9.05303100;2022-08-01T03:58:05;1.80;;;1.70;;
7823;SDS011;3957;48.61947800;9.05303100;2022-08-01T03:59:29;2.78;;;2.10;;
7823;SDS011;3957;48.61947800;9.05303100;2022-08-01T04:00:51;1.90;;;1.70;;
7823;SDS011;3957;48.61947800;9.05303100;2022-08-01T04:02:12;2.25;;;2.00;;
7823;SDS011;3957;48.61947800;9.05303100;2022-08-01T04:03:35;3.05;;;1.90;;
7823;SDS011;3957;48.61947800;9.05303100;2022-08-01T04:04:56;1.98;;;1.75;;
7823;SDS011;3957;48.61947800;9.05303100;2022-08-01T04:06:17;1.88;;;1.70;;
7823;SDS011;3957;48.61947800;9.05303100;2022-08-01T04:07:37;1.98;;;1.83;;
7823;SDS011;3957;48.61947800;9.05303100;2022-08-01T04:09:04;2.10;;;1.90;;
7823;SDS011;3957;48.61947800;9.05303100;2022-08-01T04:10:25;2.20;;;2.00;;
7823;SDS011;3957;48.61947800;9.05303100;2022-08-01T04:11:46;2.05;;;1.83;;
7823;SDS011;3957;48.61947800;9.05303100;2022-08-01T04:13:07;2.30;;;2.00;;
7823;SDS011;3957;48.61947800;9.05303100;2022-08-01T04:14:28;2.10;;;1.90;;
7823;SDS011;3957;48.61947800;9.05303100;2022-08-01T04:15:49;2.20;;;1.80;;
7823;SDS011;3957;48.61947800;9.05303100;2022-08-01T04:17:09;2.33;;;1.65;;
7823;SDS011;3957;48.61947800;9.05303100;2022-08-01T04:18:30;2.20;;;2.00;;
7823;SDS011;3957;48.61947800;9.05303100;2022-08-01T04:19:51;2.15;;;1.80;;
7823;SDS011;3957;48.61947800;9.05303100;2022-08-01T04:21:12;2.35;;;2.13;;
7823;SDS011;3957;48.61947800;9.05303100;2022-08-01T04:22:33;2.10;;;1.83;;
7823;SDS011;3957;48.61947800;9.05303100;2022-08-01T04:23:57;2.20;;;2.00;;
7823;SDS011;3957;48.61947800;9.05303100;2022-08-01T04:25:26;2.38;;;1.70;;
7823;SDS011;3957;48.61947800;9.05303100;2022-08-01T04:26:53;2.00;;;1.80;;
7823;SDS011;3957;48.61947800;9.05303100;2022-08-01T04:28:14;2.63;;;2.03;;
7823;SDS011;3957;48.61947800;9.05303100;2022-08-01T04:29:37;2.03;;;1.73;;
7823;SDS011;3957;48.61947800;9.05303100;2022-08-01T04:30:59;2.85;;;2.15;;
7823;SDS011;3957;48.61947800;9.05303100;2022-08-01T04:32:20;2.03;;;1.83;;
7823;SDS011;3957;48.61947800;9.05303100;2022-08-01T04:33:44;2.25;;;1.70;;
7823;SDS011;3957;48.61947800;9.05303100;2022-08-01T04:35:08;2.20;;;2.00;;
7823;SDS011;3957;48.61947800;9.05303100;2022-08-01T04:36:33;2.20;;;2.00;;
7823;SDS011;3957;48.61947800;9.05303100;2022-08-01T04:37:56;2.00;;;1.80;;
7823;SDS011;3957;48.61947800;9.05303100;2022-08-01T04:39:19;2.40;;;1.80;;
7823;SDS011;3957;48.61947800;9.05303100;2022-08-01T04:40:44;3.25;;;2.10;;
7823;SDS011;3957;48.61947800;9.05303100;2022-08-01T04:42:09;2.13;;;1.92;;
7823;SDS011;3957;48.61947800;9.05303100;2022-08-01T04:43:30;2.10;;;1.90;;
7823;SDS011;3957;48.61947800;9.05303100;2022-08-01T04:44:52;2.38;;;1.83;;
7823;SDS011;3957;48.61947800;9.05303100;2022-08-01T04:46:13;2.83;;;1.85;;
7823;SDS011;3957;48.61947800;9.05303100;2022-08-01T04:47:35;2.58;;;1.80;;
7823;SDS011;3957;48.61947800;9.05303100;2022-08-01T04:48:57;2.07;;;1.87;;
7823;SDS011;3957;48.61947800;9.05303100;2022-08-01T04:50:19;3.33;;;2.13;;
7823;SDS011;3957;48.61947800;9.05303100;2022-08-01T04:51:54;2.05;;;1.85;;
7823;SDS011;3957;48.61947800;9.05303100;2022-08-01T04:53:20;3.63;;;1.67;;
7823;SDS011;3957;48.61947800;9.05303100;2022-08-01T04:54:43;2.10;;;1.90;;
7823;SDS011;3957;48.61947800;9.05303100;2022-08-01T04:56:04;4.43;;;1.90;;
7823;SDS011;3957;48.61947800;9.05303100;2022-08-01T04:57:26;1.75;;;1.65;;
7823;SDS011;3957;48.61947800;9.05303100;2022-08-01T04:58:46;3.38;;;1.88;;
7823;SDS011;3957;48.61947800;9.05303100;2022-08-01T05:00:08;1.98;;;1.80;;
7823;SDS011;3957;48.61947800;9.05303100;2022-08-01T05:01:30;1.70;;;1.60;;
7823;SDS011;3957;48.61947800;9.05303100;2022-08-01T05:02:51;2.50;;;1.60;;
7823;SDS011;3957;48.61947800;9.05303100;2022-08-01T05:04:12;2.08;;;1.30;;
7823;SDS011;3957;48.61947800;9.05303100;2022-08-01T05:05:33;1.92;;;1.50;;
7823;SDS011;3957;48.61947800;9.05303100;2022-08-01T05:06:53;2.55;;;1.50;;
7823;SDS011;3957;48.61947800;9.05303100;2022-08-01T05:08:14;2.00;;;1.40;;
7823;SDS011;3957;48.61947800;9.05303100;2022-08-01T05:09:37;2.20;;;1.30;;
7823;SDS011;3957;48.61947800;9.05303100;2022-08-01T05:10:58;1.70;;;1.30;;
7823;SDS011;3957;48.61947800;9.05303100;2022-08-01T05:12:19;1.35;;;1.17;;
7823;SDS011;3957;48.61947800;9.05303100;2022-08-01T05:13:41;1.30;;;1.20;;
7823;SDS011;3957;48.61947800;9.05303100;2022-08-01T05:15:01;1.92;;;1.33;;
7823;SDS011;3957;48.61947800;9.05303100;2022-08-01T05:16:22;2.30;;;1.40;;
7823;SDS011;3957;48.61947800;9.05303100;2022-08-01T05:17:43;1.90;;;1.50;;
7823;SDS011;3957;48.61947800;9.05303100;2022-08-01T05:19:04;2.33;;;1.23;;
7823;SDS011;3957;48.61947800;9.05303100;2022-08-01T05:20:25;1.75;;;1.23;;
7823;SDS011;3957;48.61947800;9.05303100;2022-08-01T05:21:45;2.35;;;1.27;;
7823;SDS011;3957;48.61947800;9.05303100;2022-08-01T05:23:06;1.92;;;1.27;;
7823;SDS011;3957;48.61947800;9.05303100;2022-08-01T05:24:27;1.77;;;1.17;;
7823;SDS011;3957;48.61947800;9.05303100;2022-08-01T05:25:48;1.20;;;1.10;;
7823;SDS011;3957;48.61947800;9.05303100;2022-08-01T05:27:10;1.55;;;1.08;;
7823;SDS011;3957;48.61947800;9.05303100;2022-08-01T05:28:30;2.25;;;1.20;;
7823;SDS011;3957;48.61947800;9.05303100;2022-08-01T05:29:51;1.42;;;1.20;;
7823;SDS011;3957;48.61947800;9.05303100;2022-08-01T05:31:12;2.08;;;1.20;;
7823;SDS011;3957;48.61947800;9.05303100;2022-08-01T05:32:33;1.20;;;1.10;;
7823;SDS011;3957;48.61947800;9.05303100;2022-08-01T05:33:54;1.13;;;1.02;;
7823;SDS011;3957;48.61947800;9.05303100;2022-08-01T05:35:14;1.30;;;1.20;;
7823;SDS011;3957;48.61947800;9.05303100;2022-08-01T05:36:35;1.90;;;1.20;;
7823;SDS011;3957;48.61947800;9.05303100;2022-08-01T05:37:57;1.30;;;1.20;;
7823;SDS011;3957;48.61947800;9.05303100;2022-08-01T05:39:18;2.90;;;1.30;;
7823;SDS011;3957;48.61947800;9.05303100;2022-08-01T05:40:39;1.33;;;1.23;;
7823;SDS011;3957;48.61947800;9.05303100;2022-08-01T05:42:00;1.33;;;1.20;;
7823;SDS011;3957;48.61947800;9.05303100;2022-08-01T05:43:20;1.90;;;1.15;;
7823;SDS011;3957;48.61947800;9.05303100;2022-08-01T05:44:41;1.42;;;1.27;;
7823;SDS011;3957;48.61947800;9.05303100;2022-08-01T05:46:02;1.20;;;1.10;;
7823;SDS011;3957;48.61947800;9.05303100;2022-08-01T05:47:23;1.10;;;1.00;;
7823;SDS011;3957;48.61947800;9.05303100;2022-08-01T05:48:44;1.27;;;1.17;;
7823;SDS011;3957;48.61947800;9.05303100;2022-08-01T05:50:04;1.20;;;1.10;;
7823;SDS011;3957;48.61947800;9.05303100;2022-08-01T05:51:26;1.40;;;1.20;;
7823;SDS011;3957;48.61947800;9.05303100;2022-08-01T05:52:47;1.25;;;1.15;;
7823;SDS011;3957;48.61947800;9.05303100;2022-08-01T05:54:07;1.10;;;0.90;;
7823;SDS011;3957;48.61947800;9.05303100;2022-08-01T05:55:28;1.23;;;1.02;;
7823;SDS011;3957;48.61947800;9.05303100;2022-08-01T05:56:49;1.90;;;1.20;;
7823;SDS011;3957;48.61947800;9.05303100;2022-08-01T05:58:10;1.67;;;1.40;;
7823;SDS011;3957;48.61947800;9.05303100;2022-08-01T05:59:31;1.67;;;1.30;;
7823;SDS011;3957;48.61947800;9.05303100;2022-08-01T06:00:52;1.63;;;1.30;;
7823;SDS011;3957;48.61947800;9.05303100;2022-08-01T06:02:12;2.05;;;1.15;;
7823;SDS011;3957;48.61947800;9.05303100;2022-08-01T06:03:33;2.00;;;1.17;;
7823;SDS011;3957;48.61947800;9.05303100;2022-08-01T06:04:54;1.10;;;1.02;;
7823;SDS011;3957;48.61947800;9.05303100;2022-08-01T06:06:15;1.35;;;1.25;;
7823;SDS011;3957;48.61947800;9.05303100;2022-08-01T06:07:36;1.83;;;1.42;;
7823;SDS011;3957;48.61947800;9.05303100;2022-08-01T06:08:58;1.48;;;1.38;;
7823;SDS011;3957;48.61947800;9.05303100;2022-08-01T06:10:19;1.77;;;1.42;;
7823;SDS011;3957;48.61947800;9.05303100;2022-08-01T06:11:40;5.85;;;1.33;;
7823;SDS011;3957;48.61947800;9.05303100;2022-08-01T06:13:01;1.40;;;1.30;;
7823;SDS011;3957;48.61947800;9.05303100;2022-08-01T06:14:23;1.70;;;1.60;;
7823;SDS011;3957;48.61947800;9.05303100;2022-08-01T06:15:44;2.88;;;1.67;;
7823;SDS011;3957;48.61947800;9.05303100;2022-08-01T06:17:04;1.75;;;1.60;;
7823;SDS011;3957;48.61947800;9.05303100;2022-08-01T06:18:25;1.75;;;1.50;;
7823;SDS011;3957;48.61947800;9.05303100;2022-08-01T06:19:46;1.85;;;1.63;;
7823;SDS011;3957;48.61947800;9.05303100;2022-08-01T06:21:07;3.40;;;1.48;;
7823;SDS011;3957;48.61947800;9.05303100;2022-08-01T06:22:27;2.55;;;1.70;;
7823;SDS011;3957;48.61947800;9.05303100;2022-08-01T06:23:48;2.63;;;1.83;;
7823;SDS011;3957;48.61947800;9.05303100;2022-08-01T06:25:09;2.08;;;1.67;;
7823;SDS011;3957;48.61947800;9.05303100;2022-08-01T06:26:30;1.70;;;1.52;;
7823;SDS011;3957;48.61947800;9.05303100;2022-08-01T06:27:51;2.00;;;1.85;;
7823;SDS011;3957;48.61947800;9.05303100;2022-08-01T06:29:12;2.05;;;1.85;;
7823;SDS011;3957;48.61947800;9.05303100;2022-08-01T06:30:33;1.92;;;1.70;;
7823;SDS011;3957;48.61947800;9.05303100;2022-08-01T06:31:54;3.13;;;2.05;;
7823;SDS011;3957;48.61947800;9.05303100;2022-08-01T06:33:15;4.70;;;2.03;;
7823;SDS011;3957;48.61947800;9.05303100;2022-08-01T06:34:36;1.80;;;1.70;;
7823;SDS011;3957;48.61947800;9.05303100;2022-08-01T06:35:57;2.67;;;1.60;;
7823;SDS011;3957;48.61947800;9.05303100;2022-08-01T06:37:18;3.65;;;2.05;;
7823;SDS011;3957;48.61947800;9.05303100;2022-08-01T06:38:38;2.40;;;2.05;;
7823;SDS011;3957;48.61947800;9.05303100;2022-08-01T06:40:02;3.38;;;2.00;;
7823;SDS011;3957;48.61947800;9.05303100;2022-08-01T06:41:25;2.15;;;1.90;;
7823;SDS011;3957;48.61947800;9.05303100;2022-08-01T06:42:45;2.20;;;1.70;;
7823;SDS011;3957;48.61947800;9.05303100;2022-08-01T06:44:07;2.00;;;1.83;;
7823;SDS011;3957;48.61947800;9.05303100;2022-08-01T06:45:28;2.58;;;1.80;;
7823;SDS011;3957;48.61947800;9.05303100;2022-08-01T06:46:48;1.88;;;1.77;;
7823;SDS011;3957;48.61947800;9.05303100;2022-08-01T06:48:09;2.00;;;1.80;;
7823;SDS011;3957;48.61947800;9.05303100;2022-08-01T06:49:30;2.83;;;2.03;;
7823;SDS011;3957;48.61947800;9.05303100;2022-08-01T06:50:51;2.00;;;1.70;;
7823;SDS011;3957;48.61947800;9.05303100;2022-08-01T06:52:27;2.85;;;1.95;;
7823;SDS011;3957;48.61947800;9.05303100;2022-08-01T06:53:48;3.15;;;2.00;;
7823;SDS011;3957;48.61947800;9.05303100;2022-08-01T06:55:09;2.43;;;1.80;;
7823;SDS011;3957;48.61947800;9.05303100;2022-08-01T06:56:30;1.63;;;1.52;;
7823;SDS011;3957;48.61947800;9.05303100;2022-08-01T06:57:52;1.95;;;1.75;;
7823;SDS011;3957;48.61947800;9.05303100;2022-08-01T06:59:13;1.60;;;1.50;;
7823;SDS011;3957;48.61947800;9.05303100;2022-08-01T07:00:33;2.20;;;1.80;;
7823;SDS011;3957;48.61947800;9.05303100;2022-08-01T07:01:54;1.95;;;1.77;;
7823;SDS011;3957;48.61947800;9.05303100;2022-08-01T07:03:15;2.72;;;1.60;;
7823;SDS011;3957;48.61947800;9.05303100;2022-08-01T07:04:36;2.50;;;1.83;;
7823;SDS011;3957;48.61947800;9.05303100;2022-08-01T07:05:56;1.70;;;1.60;;
7823;SDS011;3957;48.61947800;9.05303100;2022-08-01T07:07:17;1.73;;;1.60;;
7823;SDS011;3957;48.61947800;9.05303100;2022-08-01T07:08:38;2.45;;;1.80;;
7823;SDS011;3957;48.61947800;9.05303100;2022-08-01T07:09:59;2.10;;;1.60;;
7823;SDS011;3957;48.61947800;9.05303100;2022-08-01T07:11:20;2.70;;;1.52;;
7823;SDS011;3957;48.61947800;9.05303100;2022-08-01T07:12:42;3.30;;;1.80;;
7823;SDS011;3957;48.61947800;9.05303100;2022-08-01T07:14:02;1.80;;;1.70;;
7823;SDS011;3957;48.61947800;9.05303100;2022-08-01T07:15:23;1.42;;;1.33;;
7823;SDS011;3957;48.61947800;9.05303100;2022-08-01T07:16:47;2.78;;;1.40;;
7823;SDS011;3957;48.61947800;9.05303100;2022-08-01T07:18:08;1.60;;;1.20;;
7823;SDS011;3957;48.61947800;9.05303100;2022-08-01T07:19:29;1.70;;;1.30;;
7823;SDS011;3957;48.61947800;9.05303100;2022-08-01T07:20:49;2.95;;;1.60;;
7823;SDS011;3957;48.61947800;9.05303100;2022-08-01T07:22:10;1.50;;;1.40;;
7823;SDS011;3957;48.61947800;9.05303100;2022-08-01T07:23:31;1.27;;;1.17;;
7823;SDS011;3957;48.61947800;9.05303100;2022-08-01T07:24:52;1.33;;;1.23;;
7823;SDS011;3957;48.61947800;9.05303100;2022-08-01T07:26:12;1.75;;;1.25;;
7823;SDS011;3957;48.61947800;9.05303100;2022-08-01T07:27:33;1.15;;;1.05;;
7823;SDS011;3957;48.61947800;9.05303100;2022-08-01T07:28:55;1.80;;;1.27;;
7823;SDS011;3957;48.61947800;9.05303100;2022-08-01T07:30:15;2.58;;;1.40;;
7823;SDS011;3957;48.61947800;9.05303100;2022-08-01T07:31:36;1.30;;;1.20;;
7823;SDS011;3957;48.61947800;9.05303100;2022-08-01T07:32:57;1.70;;;1.42;;
7823;SDS011;3957;48.61947800;9.05303100;2022-08-01T07:34:18;1.65;;;1.50;;
7823;SDS011;3957;48.61947800;9.05303100;2022-08-01T07:35:39;1.52;;;1.20;;